createdAt,value
2023-11-12T00:01:23.703Z,7.22
2023-11-12T00:03:25.256Z,8.45
2023-11-12T00:05:26.829Z,8.80
2023-11-12T00:07:28.399Z,7.35
2023-11-12T00:09:30.310Z,7.45
2023-11-12T00:11:35.815Z,7.88
2023-11-12T00:13:37.375Z,7.70
2023-11-12T00:15:39.548Z,7.75
2023-11-12T00:17:43.406Z,9.05
2023-11-12T00:19:45.249Z,6.70
2023-11-12T00:21:49.534Z,8.35
2023-11-12T00:23:52.437Z,7.68
2023-11-12T00:25:54.736Z,7.10
2023-11-12T00:27:56.370Z,4.35
2023-11-12T00:29:57.882Z,5.03
2023-11-12T00:31:59.552Z,4.95
2023-11-12T00:34:01.130Z,4.57
2023-11-12T00:36:02.794Z,4.55
2023-11-12T00:38:05.493Z,6.60
2023-11-12T00:40:07.754Z,4.60
2023-11-12T00:42:09.273Z,6.20
2023-11-12T00:44:20.020Z,5.93
2023-11-12T00:46:44.767Z,6.50
2023-11-12T00:49:09.781Z,6.10
2023-11-12T00:51:23.850Z,5.30
2023-11-12T00:53:32.945Z,5.15
2023-11-12T00:55:36.130Z,5.65
2023-11-12T00:57:42.346Z,4.45
2023-11-12T00:59:50.058Z,4.85
2023-11-12T01:01:54.247Z,4.55
2023-11-12T01:03:58.086Z,5.05
2023-11-12T01:06:06.681Z,4.80
2023-11-12T01:08:13.192Z,4.80
2023-11-12T01:10:16.671Z,4.97
2023-11-12T01:12:24.965Z,5.47
2023-11-12T01:14:29.656Z,5.97
2023-11-12T01:16:33.951Z,4.70
2023-11-12T01:18:39.247Z,4.97
2023-11-12T01:20:43.247Z,5.30
2023-11-12T01:22:45.571Z,4.88
2023-11-12T01:24:48.067Z,4.28
2023-11-12T01:26:51.741Z,3.88
2023-11-12T01:28:55.863Z,4.15
2023-11-12T01:31:01.796Z,4.50
2023-11-12T01:33:06.133Z,3.92
2023-11-12T01:37:13.075Z,4.22
2023-11-12T01:39:16.850Z,3.78
2023-11-12T01:41:21.168Z,4.32
2023-11-12T01:43:23.327Z,4.55
2023-11-12T01:45:25.153Z,4.10
2023-11-12T01:47:27.035Z,4.70
2023-11-12T01:49:28.572Z,4.60
2023-11-12T01:51:31.561Z,4.97
2023-11-12T01:53:34.160Z,4.85
2023-11-12T01:55:36.134Z,6.25
2023-11-12T01:57:40.804Z,5.32
2023-11-12T01:59:42.369Z,4.28
2023-11-12T02:01:44.142Z,5.38
2023-11-12T02:03:46.361Z,4.05
2023-11-12T02:05:47.911Z,2.90
2023-11-12T02:07:50.314Z,2.47
2023-11-12T02:09:56.286Z,2.55
2023-11-12T02:11:58.071Z,2.63
2023-11-12T02:13:59.594Z,1.92
2023-11-12T02:16:01.065Z,1.38
2023-11-12T02:18:02.688Z,2.10
2023-11-12T02:20:05.376Z,1.40
2023-11-12T02:22:06.994Z,2.55
2023-11-12T02:24:08.763Z,2.08
2023-11-12T02:26:10.490Z,1.85
2023-11-12T02:28:13.903Z,1.60
2023-11-12T02:30:16.895Z,1.55
2023-11-12T02:32:19.584Z,1.33
2023-11-12T02:34:22.476Z,1.67
2023-11-12T02:36:26.681Z,1.40
2023-11-12T02:38:28.305Z,1.33
2023-11-12T02:40:29.858Z,1.20
2023-11-12T02:42:31.482Z,1.23
2023-11-12T02:44:33.310Z,1.40
2023-11-12T02:46:35.633Z,1.15
2023-11-12T02:48:51.549Z,2.42
2023-11-12T02:50:53.017Z,1.60
2023-11-12T02:52:54.948Z,1.42
2023-11-12T02:54:56.472Z,2.72
2023-11-12T02:56:57.941Z,1.20
2023-11-12T02:58:59.455Z,2.00
2023-11-12T03:01:01.235Z,1.20
2023-11-12T03:03:03.096Z,1.50
2023-11-12T03:05:04.963Z,1.80
2023-11-12T03:07:06.482Z,1.20
2023-11-12T03:09:10.686Z,1.25
2023-11-12T03:13:15.629Z,1.02
2023-11-12T03:15:17.227Z,1.05
2023-11-12T03:17:18.745Z,1.58
2023-11-12T03:19:20.194Z,1.38
2023-11-12T03:21:21.748Z,1.33
2023-11-12T03:23:23.569Z,1.42
2023-11-12T03:25:25.448Z,1.40
2023-11-12T03:27:27.087Z,1.42
2023-11-12T03:29:28.708Z,1.35
2023-11-12T03:31:30.277Z,1.38
2023-11-12T03:33:32.904Z,1.30
2023-11-12T03:35:34.676Z,1.38
2023-11-12T03:37:36.183Z,1.15
2023-11-12T03:39:37.849Z,0.88
2023-11-12T03:41:39.434Z,1.10
2023-11-12T03:43:41.026Z,1.98
2023-11-12T03:45:42.577Z,1.00
2023-11-12T03:47:44.183Z,2.03
2023-11-12T03:49:45.952Z,1.30
2023-11-12T03:51:48.366Z,1.20
2023-11-12T03:53:51.710Z,1.42
2023-11-12T03:55:56.232Z,0.82
2023-11-12T03:58:01.176Z,1.20
2023-11-12T04:00:07.717Z,1.25
2023-11-12T04:02:11.818Z,0.70
2023-11-12T04:04:14.958Z,0.75
2023-11-12T04:06:18.196Z,1.33
2023-11-12T04:08:21.747Z,0.90
2023-11-12T04:10:25.265Z,1.05
2023-11-12T04:12:28.925Z,0.82
2023-11-12T04:14:32.639Z,1.10
2023-11-12T04:16:36.811Z,0.88
2023-11-12T04:18:39.980Z,1.50
2023-11-12T04:20:43.327Z,1.67
2023-11-12T04:22:46.339Z,1.15
2023-11-12T04:24:48.693Z,0.88
2023-11-12T04:26:52.207Z,1.45
2023-11-12T04:28:56.424Z,1.30
2023-11-12T04:30:59.893Z,1.00
2023-11-12T04:33:02.947Z,1.05
2023-11-12T04:35:05.177Z,1.13
2023-11-12T04:37:07.132Z,1.20
2023-11-12T04:39:08.870Z,1.30
2023-11-12T04:41:12.938Z,1.33
2023-11-12T04:43:14.486Z,2.30
2023-11-12T04:45:16.064Z,1.25
2023-11-12T04:47:18.015Z,1.42
2023-11-12T04:49:19.465Z,1.08
2023-11-12T04:51:21.736Z,1.15
2023-11-12T04:53:23.224Z,1.48
2023-11-12T04:55:25.525Z,1.15
2023-11-12T04:57:27.041Z,0.80
2023-11-12T04:59:28.492Z,3.05
2023-11-12T05:01:31.563Z,0.55
2023-11-12T05:03:33.445Z,1.77
2023-11-12T05:05:37.473Z,1.88
2023-11-12T05:07:39.521Z,1.25
2023-11-12T05:09:41.277Z,0.90
2023-11-12T05:11:42.740Z,1.00
2023-11-12T05:13:44.217Z,1.80
2023-11-12T05:15:45.767Z,0.95
2023-11-12T05:17:47.316Z,1.88
2023-11-12T05:19:49.181Z,1.10
2023-11-12T05:21:50.727Z,1.45
2023-11-12T05:23:52.190Z,1.85
2023-11-12T05:25:56.069Z,1.40
2023-11-12T05:27:57.663Z,1.60
2023-11-12T05:30:01.269Z,1.52
2023-11-12T05:32:02.799Z,2.65
2023-11-12T05:34:04.371Z,2.00
2023-11-12T05:36:06.182Z,1.85
2023-11-12T05:38:07.713Z,1.63
2023-11-12T05:40:09.533Z,1.77
2023-11-12T05:42:11.022Z,1.95
2023-11-12T05:44:12.558Z,1.55
2023-11-12T05:46:14.579Z,1.90
2023-11-12T05:48:16.256Z,0.93
2023-11-12T05:50:17.788Z,1.63
2023-11-12T05:52:19.306Z,1.88
2023-11-12T05:54:20.825Z,1.40
2023-11-12T05:56:22.545Z,2.08
2023-11-12T05:58:24.146Z,2.53
2023-11-12T06:00:25.729Z,1.92
2023-11-12T06:02:27.250Z,1.70
2023-11-12T06:04:28.800Z,1.98
2023-11-12T06:06:30.419Z,1.70
2023-11-12T06:08:32.617Z,1.83
2023-11-12T06:10:34.235Z,1.95
2023-11-12T06:12:35.707Z,2.90
2023-11-12T06:14:37.831Z,1.90
2023-11-12T06:16:39.443Z,2.17
2023-11-12T06:18:41.199Z,2.30
2023-11-12T06:20:42.802Z,2.30
2023-11-12T06:22:44.285Z,2.22
2023-11-12T06:24:45.840Z,2.90
2023-11-12T06:26:47.529Z,2.13
2023-11-12T06:28:52.561Z,1.92
2023-11-12T06:30:55.402Z,3.53
2023-11-12T06:32:57.547Z,2.38
2023-11-12T06:34:59.161Z,2.42
2023-11-12T06:37:00.980Z,2.65
2023-11-12T06:39:02.864Z,3.08
2023-11-12T06:41:04.409Z,2.92
2023-11-12T06:43:05.878Z,3.30
2023-11-12T06:45:07.689Z,2.97
2023-11-12T06:47:09.189Z,3.20
2023-11-12T06:49:11.799Z,3.38
2023-11-12T06:51:23.262Z,3.00
2023-11-12T06:53:24.781Z,3.45
2023-11-12T06:55:26.512Z,2.58
2023-11-12T06:57:28.374Z,3.45
2023-11-12T06:59:31.916Z,3.15
2023-11-12T07:01:39.097Z,2.85
2023-11-12T07:03:51.092Z,3.50
2023-11-12T07:05:55.687Z,3.08
2023-11-12T07:08:00.048Z,3.22
2023-11-12T07:12:07.655Z,3.50
2023-11-12T07:14:11.178Z,4.38
2023-11-12T07:16:17.852Z,4.22
2023-11-12T07:18:21.352Z,4.63
2023-11-12T07:20:30.636Z,4.30
2023-11-12T07:22:34.030Z,4.25
2023-11-12T07:24:38.426Z,4.30
2023-11-12T07:26:42.357Z,4.65
2023-11-12T07:28:47.374Z,5.15
2023-11-12T07:30:51.477Z,5.28
2023-11-12T07:32:55.770Z,4.75
2023-11-12T07:35:00.569Z,5.80
2023-11-12T07:37:06.286Z,5.40
2023-11-12T07:39:09.636Z,6.05
2023-11-12T07:41:11.761Z,5.13
2023-11-12T07:43:13.919Z,6.20
2023-11-12T07:45:21.320Z,5.47
2023-11-12T07:47:26.970Z,7.68
2023-11-12T07:49:28.453Z,5.85
2023-11-12T07:51:30.000Z,5.80
2023-11-12T07:53:31.485Z,6.30
2023-11-12T07:55:33.004Z,5.35
2023-11-12T07:57:34.504Z,8.82
2023-11-12T07:59:36.038Z,5.82
2023-11-12T08:01:37.696Z,4.35
2023-11-12T08:03:40.049Z,5.22
2023-11-12T08:05:41.867Z,4.40
2023-11-12T08:07:43.347Z,4.25
2023-11-12T08:09:47.804Z,4.40
2023-11-12T08:11:49.330Z,4.53
2023-11-12T08:13:51.013Z,4.18
2023-11-12T08:15:52.724Z,4.18
2023-11-12T08:17:54.333Z,5.50
2023-11-12T08:19:55.880Z,3.97
2023-11-12T08:21:57.687Z,4.43
2023-11-12T08:24:00.123Z,4.03
2023-11-12T08:26:03.394Z,4.32
2023-11-12T08:28:05.449Z,3.55
2023-11-12T08:30:07.239Z,6.20
2023-11-12T08:32:08.856Z,3.60
2023-11-12T08:34:10.449Z,4.85
2023-11-12T08:36:12.256Z,5.15
2023-11-12T08:38:13.833Z,5.00
2023-11-12T08:40:18.579Z,4.28
2023-11-12T08:42:21.514Z,4.25
2023-11-12T08:44:23.087Z,4.38
2023-11-12T08:46:24.706Z,4.82
2023-11-12T08:48:32.687Z,4.00
2023-11-12T08:50:34.375Z,4.30
2023-11-12T08:52:37.532Z,4.07
2023-11-12T08:54:40.173Z,4.22
2023-11-12T08:56:41.726Z,5.43
2023-11-12T08:58:43.429Z,4.72
2023-11-12T09:00:45.023Z,4.78
2023-11-12T09:02:47.428Z,4.90
2023-11-12T09:04:49.212Z,4.40
2023-11-12T09:06:50.719Z,4.07
2023-11-12T09:08:52.298Z,4.70
2023-11-12T09:10:53.782Z,4.63
2023-11-12T09:12:55.405Z,4.63
2023-11-12T09:14:56.989Z,4.10
2023-11-12T09:16:58.640Z,4.60
2023-11-12T09:19:01.157Z,4.65
2023-11-12T09:21:02.786Z,3.90
2023-11-12T09:23:04.496Z,4.20
2023-11-12T09:25:11.256Z,5.18
2023-11-12T09:27:13.758Z,4.50
2023-11-12T09:29:15.340Z,4.07
2023-11-12T09:31:17.280Z,4.18
2023-11-12T09:33:19.172Z,4.22
2023-11-12T09:35:20.712Z,3.85
2023-11-12T09:37:22.285Z,3.25
2023-11-12T09:39:24.823Z,3.65
2023-11-12T09:41:27.433Z,4.18
2023-11-12T09:43:29.867Z,4.50
2023-11-12T09:45:32.299Z,3.60
2023-11-12T09:48:02.735Z,3.15
2023-11-12T09:50:05.427Z,3.58
2023-11-12T09:52:07.057Z,3.63
2023-11-12T09:54:09.631Z,3.83
2023-11-12T09:56:11.317Z,3.60
2023-11-12T09:58:12.981Z,3.20
2023-11-12T10:00:14.985Z,3.67
2023-11-12T10:02:19.470Z,5.93
2023-11-12T10:04:22.941Z,3.13
2023-11-12T10:06:35.885Z,2.85
2023-11-12T10:08:45.411Z,3.17
2023-11-12T10:10:55.807Z,4.00
2023-11-12T10:13:07.011Z,2.85
2023-11-12T10:15:13.009Z,2.75
2023-11-12T10:17:17.575Z,3.03
2023-11-12T10:19:20.041Z,2.67
2023-11-12T10:21:26.678Z,2.90
2023-11-12T10:23:33.505Z,2.28
2023-11-12T10:25:39.688Z,2.65
2023-11-12T10:27:57.020Z,4.47
2023-11-12T10:30:21.357Z,3.40
2023-11-12T10:32:28.209Z,2.20
2023-11-12T10:34:35.137Z,1.77
2023-11-12T10:36:41.580Z,3.03
2023-11-12T10:38:51.165Z,2.33
2023-11-12T10:40:58.760Z,2.55
2023-11-12T10:43:11.187Z,2.20
2023-11-12T10:45:16.369Z,1.73
2023-11-12T10:47:20.852Z,2.10
2023-11-12T10:49:26.318Z,2.30
2023-11-12T10:51:30.817Z,1.35
2023-11-12T10:53:34.899Z,1.70
2023-11-12T10:57:43.627Z,2.10
2023-11-12T10:59:47.497Z,1.55
2023-11-12T11:01:52.423Z,1.80
2023-11-12T11:03:57.408Z,1.48
2023-11-12T11:06:07.199Z,1.90
2023-11-12T11:08:10.851Z,1.00
2023-11-12T11:10:13.002Z,0.98
2023-11-12T11:12:14.970Z,2.20
2023-11-12T11:14:23.235Z,1.13
2023-11-12T11:16:44.991Z,1.40
2023-11-12T11:18:50.686Z,2.83
2023-11-12T11:21:10.029Z,1.15
2023-11-12T11:23:37.689Z,1.40
2023-11-12T11:25:39.258Z,0.75
2023-11-12T11:27:40.832Z,1.40
2023-11-12T11:30:17.667Z,0.90
2023-11-12T11:32:19.466Z,1.00
2023-11-12T11:34:38.053Z,0.90
2023-11-12T11:36:41.475Z,0.50
2023-11-12T11:38:58.582Z,0.88
2023-11-12T11:41:00.286Z,0.35
2023-11-12T11:43:20.514Z,0.60
2023-11-12T11:45:22.063Z,0.45
2023-11-12T11:47:25.264Z,0.50
2023-11-12T11:49:26.822Z,0.73
2023-11-12T11:51:31.910Z,0.45
2023-11-12T11:53:34.373Z,0.63
2023-11-12T11:55:36.006Z,0.43
2023-11-12T11:57:47.597Z,1.20
2023-11-12T11:59:49.967Z,0.43
2023-11-12T12:01:54.516Z,0.70
2023-11-12T12:04:06.452Z,0.40
2023-11-12T12:06:18.192Z,0.40
2023-11-12T12:08:20.029Z,0.60
2023-11-12T12:10:26.692Z,0.45
2023-11-12T12:12:28.511Z,0.45
2023-11-12T12:14:36.201Z,0.43
2023-11-12T12:16:38.348Z,0.50
2023-11-12T12:18:42.055Z,0.20
2023-11-12T12:20:43.634Z,0.30
2023-11-12T12:22:45.454Z,0.50
2023-11-12T12:24:47.828Z,0.73
2023-11-12T12:26:49.635Z,0.32
2023-11-12T12:28:52.212Z,0.43
2023-11-12T12:30:54.184Z,0.63
2023-11-12T12:32:56.410Z,0.22
2023-11-12T12:34:58.834Z,0.30
2023-11-12T12:37:09.255Z,0.77
2023-11-12T12:39:11.468Z,0.40
2023-11-12T12:41:13.923Z,0.50
2023-11-12T12:43:15.571Z,0.40
2023-11-12T12:45:17.746Z,0.55
2023-11-12T12:47:32.137Z,0.20
2023-11-12T12:49:33.831Z,0.43
2023-11-12T12:51:37.452Z,0.63
2023-11-12T12:53:40.333Z,0.47
2023-11-12T12:55:44.359Z,0.73
2023-11-12T12:57:50.969Z,0.30
2023-11-12T12:59:53.016Z,0.77
2023-11-12T13:01:54.857Z,0.55
2023-11-12T13:03:56.420Z,0.52
2023-11-12T13:05:58.891Z,0.90
2023-11-12T13:08:00.724Z,0.52
2023-11-12T13:10:06.424Z,0.65
2023-11-12T13:12:16.751Z,0.40
2023-11-12T13:14:29.881Z,0.40
2023-11-12T13:16:46.043Z,0.65
2023-11-12T13:18:50.199Z,0.50
2023-11-12T13:20:53.732Z,0.80
2023-11-12T13:22:57.679Z,0.50
2023-11-12T13:25:01.885Z,0.73
2023-11-12T13:27:06.152Z,0.82
2023-11-12T13:29:09.032Z,1.00
2023-11-12T13:31:13.345Z,0.93
2023-11-12T13:33:16.669Z,0.50
2023-11-12T13:35:20.466Z,0.47
2023-11-12T13:37:22.984Z,0.75
2023-11-12T13:39:26.755Z,0.70
2023-11-12T13:41:32.212Z,0.35
2023-11-12T13:43:36.352Z,0.40
2023-11-12T13:45:41.295Z,0.52
2023-11-12T13:47:45.744Z,0.80
2023-11-12T13:49:49.806Z,0.40
2023-11-12T13:51:57.764Z,0.77
2023-11-12T13:54:00.894Z,0.60
2023-11-12T13:56:04.714Z,1.17
2023-11-12T13:58:07.486Z,0.57
2023-11-12T14:00:12.709Z,0.75
2023-11-12T14:02:14.747Z,0.85
2023-11-12T14:04:16.337Z,0.80
2023-11-12T14:06:18.611Z,0.73
2023-11-12T14:08:20.678Z,0.50
2023-11-12T14:10:23.113Z,0.80
2023-11-12T14:12:25.957Z,0.82
2023-11-12T14:14:29.123Z,0.90
2023-11-12T14:16:30.712Z,0.88
2023-11-12T14:18:32.408Z,1.00
2023-11-12T14:20:34.885Z,1.05
2023-11-12T14:22:37.828Z,1.10
2023-11-12T14:24:39.351Z,0.85
2023-11-12T14:26:43.959Z,1.17
2023-11-12T14:28:45.558Z,0.70
2023-11-12T14:30:50.335Z,0.90
2023-11-12T14:32:52.293Z,2.03
2023-11-12T14:34:53.917Z,2.38
2023-11-12T14:36:55.590Z,1.48
2023-11-12T14:38:57.306Z,1.75
2023-11-12T14:40:58.982Z,1.85
2023-11-12T14:43:01.898Z,1.63
2023-11-12T14:45:06.322Z,1.30
2023-11-12T14:47:07.978Z,1.27
2023-11-12T14:49:10.062Z,1.50
2023-11-12T14:51:11.736Z,2.33
2023-11-12T14:53:13.485Z,2.00
2023-11-12T14:55:24.548Z,1.75
2023-11-12T14:57:27.851Z,1.63
2023-11-12T14:59:29.471Z,2.25
2023-11-12T15:01:31.636Z,2.33
2023-11-12T15:03:33.204Z,2.55
2023-11-12T15:05:35.171Z,3.08
2023-11-12T15:07:39.750Z,2.58
2023-11-12T15:09:42.085Z,2.55
2023-11-12T15:11:43.732Z,2.55
2023-11-12T15:13:45.711Z,2.78
2023-11-12T15:15:48.532Z,3.13
2023-11-12T15:17:52.937Z,3.85
2023-11-12T15:19:55.431Z,3.60
2023-11-12T15:21:56.999Z,4.18
2023-11-12T15:23:58.626Z,5.15
2023-11-12T15:26:00.329Z,4.75
2023-11-12T15:28:01.917Z,4.07
2023-11-12T15:30:04.415Z,3.20
2023-11-12T15:32:08.070Z,3.20
2023-11-12T15:34:11.927Z,3.10
2023-11-12T15:36:13.962Z,2.50
2023-11-12T15:38:16.006Z,2.97
2023-11-12T15:40:24.222Z,2.50
2023-11-12T15:42:26.618Z,2.88
2023-11-12T15:44:28.424Z,2.88
2023-11-12T15:46:30.046Z,2.42
2023-11-12T15:48:32.305Z,2.30
2023-11-12T15:50:33.862Z,2.22
2023-11-12T15:52:35.907Z,2.85
2023-11-12T15:54:37.760Z,2.50
2023-11-12T15:56:39.491Z,2.35
2023-11-12T15:58:42.461Z,2.28
2023-11-12T16:00:44.398Z,2.17
2023-11-12T16:02:47.108Z,2.60
2023-11-12T16:04:49.050Z,2.70
2023-11-12T16:06:50.739Z,2.80
2023-11-12T16:08:56.347Z,3.22
2023-11-12T16:10:58.600Z,4.00
2023-11-12T16:13:00.709Z,3.53
2023-11-12T16:15:05.742Z,3.55
2023-11-12T16:17:07.478Z,4.13
2023-11-12T16:19:11.857Z,4.25
2023-11-12T16:21:20.737Z,3.67
2023-11-12T16:23:24.421Z,3.42
2023-11-12T16:25:27.997Z,4.32
2023-11-12T16:27:31.089Z,4.15
2023-11-12T16:29:35.071Z,4.10
2023-11-12T16:31:37.208Z,3.92
2023-11-12T16:33:40.516Z,3.67
2023-11-12T16:35:44.436Z,4.40
2023-11-12T16:37:50.159Z,4.18
2023-11-12T16:39:54.067Z,3.63
2023-11-12T16:41:57.993Z,4.18
2023-11-12T16:44:01.461Z,6.15
2023-11-12T16:46:05.886Z,6.65
2023-11-12T16:48:09.249Z,7.00
2023-11-12T16:50:15.062Z,6.30
2023-11-12T16:52:19.156Z,7.40
2023-11-12T16:54:22.701Z,6.55
2023-11-12T16:56:25.969Z,7.40
2023-11-12T16:58:28.076Z,17.58
2023-11-12T17:00:30.395Z,8.88
2023-11-12T17:02:32.111Z,7.70
2023-11-12T17:04:34.946Z,8.18
2023-11-12T17:06:36.681Z,8.35
2023-11-12T17:08:38.234Z,8.10
2023-11-12T17:10:40.271Z,8.48
2023-11-12T17:12:42.288Z,11.18
2023-11-12T17:14:45.414Z,12.65
2023-11-12T17:16:47.260Z,10.60
2023-11-12T17:18:48.944Z,11.95
2023-11-12T17:20:50.468Z,13.02
2023-11-12T17:22:52.028Z,14.18
2023-11-12T17:24:53.726Z,13.35
2023-11-12T17:26:56.202Z,13.05
2023-11-12T17:28:59.197Z,12.23
2023-11-12T17:31:00.759Z,11.77
2023-11-12T17:33:02.713Z,12.93
2023-11-12T17:35:05.535Z,13.88
2023-11-12T17:37:07.635Z,13.77
2023-11-12T17:39:10.867Z,14.45
2023-11-12T17:41:12.391Z,13.47
2023-11-12T17:43:14.027Z,16.85
2023-11-12T17:45:16.801Z,15.82
2023-11-12T17:47:18.388Z,18.13
2023-11-12T17:49:21.167Z,18.15
2023-11-12T17:51:24.084Z,22.75
2023-11-12T17:53:25.627Z,16.55
2023-11-12T17:55:27.949Z,16.17
2023-11-12T17:57:30.586Z,15.73
2023-11-12T17:59:32.230Z,17.70
2023-11-12T18:01:34.382Z,18.48
2023-11-12T18:03:36.163Z,21.15
2023-11-12T18:05:37.826Z,13.98
2023-11-12T18:07:41.678Z,16.10
2023-11-12T18:09:43.348Z,11.18
2023-11-12T18:11:49.337Z,13.73
2023-11-12T18:13:50.967Z,18.15
2023-11-12T18:15:52.613Z,24.58
2023-11-12T18:17:54.153Z,19.10
2023-11-12T18:19:56.635Z,16.88
2023-11-12T18:21:58.337Z,15.35
2023-11-12T18:24:01.368Z,17.15
2023-11-12T18:26:02.990Z,16.35
2023-11-12T18:28:11.032Z,14.90
2023-11-12T18:30:12.935Z,17.42
2023-11-12T18:32:14.914Z,23.83
2023-11-12T18:34:16.676Z,23.17
2023-11-12T18:36:18.240Z,12.48
2023-11-12T18:38:20.113Z,12.75
2023-11-12T18:40:21.714Z,15.65
2023-11-12T18:42:25.072Z,18.65
2023-11-12T18:44:26.602Z,16.92
2023-11-12T18:46:28.161Z,11.27
2023-11-12T18:48:30.216Z,13.57
2023-11-12T18:50:33.355Z,10.48
2023-11-12T18:52:34.855Z,8.90
2023-11-12T18:54:36.484Z,11.50
2023-11-12T18:56:38.025Z,9.70
2023-11-12T18:58:40.446Z,8.57
2023-11-12T19:00:42.004Z,7.93
2023-11-12T19:02:43.587Z,8.13
2023-11-12T19:04:47.833Z,7.28
2023-11-12T19:06:50.163Z,6.50
2023-11-12T19:08:51.848Z,7.07
2023-11-12T19:10:53.427Z,7.13
2023-11-12T19:12:55.402Z,8.30
2023-11-12T19:14:56.945Z,7.53
2023-11-12T19:16:59.092Z,9.50
2023-11-12T19:19:01.844Z,8.25
2023-11-12T19:21:05.589Z,9.30
2023-11-12T19:23:11.176Z,9.57
2023-11-12T19:25:25.236Z,8.60
2023-11-12T19:27:41.899Z,7.25
2023-11-12T19:29:50.123Z,9.98
2023-11-12T19:34:00.158Z,8.27
2023-11-12T19:36:07.616Z,8.60
2023-11-12T19:38:11.123Z,8.15
2023-11-12T19:40:20.970Z,10.43
2023-11-12T19:42:25.053Z,7.68
2023-11-12T19:44:28.677Z,7.93
2023-11-12T19:46:32.298Z,8.50
2023-11-12T19:48:38.368Z,8.77
2023-11-12T19:50:42.413Z,9.75
2023-11-12T19:52:44.106Z,7.93
2023-11-12T19:54:49.273Z,9.88
2023-11-12T19:56:55.258Z,8.27
2023-11-12T19:59:01.472Z,7.88
2023-11-12T20:01:06.504Z,8.55
2023-11-12T20:03:12.452Z,9.80
2023-11-12T20:05:15.433Z,9.93
2023-11-12T20:07:19.243Z,9.52
2023-11-12T20:11:23.906Z,8.13
2023-11-12T20:13:29.599Z,9.85
2023-11-12T20:15:38.138Z,10.02
2023-11-12T20:17:40.469Z,8.43
2023-11-12T20:19:42.780Z,9.68
2023-11-12T20:21:46.534Z,8.40
2023-11-12T20:23:55.026Z,9.20
2023-11-12T20:25:58.352Z,8.35
2023-11-12T20:28:00.380Z,9.13
2023-11-12T20:30:02.049Z,7.18
2023-11-12T20:32:03.844Z,7.57
2023-11-12T20:34:05.512Z,7.93
2023-11-12T20:36:11.411Z,8.07
2023-11-12T20:38:14.104Z,8.57
2023-11-12T20:40:16.516Z,7.82
2023-11-12T20:42:18.091Z,8.07
2023-11-12T20:44:19.709Z,8.25
2023-11-12T20:46:21.213Z,7.95
2023-11-12T20:48:22.941Z,8.10
2023-11-12T20:50:24.596Z,8.30
2023-11-12T20:52:26.257Z,10.15
2023-11-12T20:54:27.788Z,7.78
2023-11-12T20:56:29.297Z,7.05
2023-11-12T20:58:34.130Z,8.63
2023-11-12T21:00:35.681Z,6.95
2023-11-12T21:02:37.962Z,8.35
2023-11-12T21:04:40.109Z,7.57
2023-11-12T21:06:42.055Z,6.85
2023-11-12T21:08:43.608Z,8.30
2023-11-12T21:10:45.109Z,7.68
2023-11-12T21:12:47.917Z,9.57
2023-11-12T21:14:49.713Z,6.95
2023-11-12T21:16:51.471Z,6.72
2023-11-12T21:18:55.517Z,9.85
2023-11-12T21:20:57.006Z,7.45
2023-11-12T21:22:59.264Z,7.85
2023-11-12T21:25:01.020Z,8.30
2023-11-12T21:27:02.591Z,8.48
2023-11-12T21:29:04.048Z,8.10
2023-11-12T21:31:06.853Z,8.30
2023-11-12T21:33:08.465Z,8.43
2023-11-12T21:35:10.434Z,7.68
2023-11-12T21:37:11.968Z,7.53
2023-11-12T21:39:17.975Z,6.88
2023-11-12T21:41:19.459Z,7.75
2023-11-12T21:43:20.992Z,5.25
2023-11-12T21:45:28.425Z,4.30
2023-11-12T21:47:30.201Z,4.88
2023-11-12T21:49:31.690Z,4.60
2023-11-12T21:51:33.428Z,5.72
2023-11-12T21:53:37.031Z,5.68
2023-11-12T21:55:38.929Z,6.47
2023-11-12T21:57:40.460Z,4.97
2023-11-12T21:59:44.662Z,6.18
2023-11-12T22:03:48.102Z,5.63
2023-11-12T22:05:49.677Z,5.85
2023-11-12T22:07:51.639Z,5.32
2023-11-12T22:09:53.147Z,5.28
2023-11-12T22:11:54.819Z,6.40
2023-11-12T22:13:57.044Z,7.57
2023-11-12T22:15:58.607Z,8.35
2023-11-12T22:18:00.273Z,7.47
2023-11-12T22:20:01.852Z,7.25
2023-11-12T22:22:03.954Z,7.15
2023-11-12T22:24:07.393Z,8.98
2023-11-12T22:26:08.890Z,8.60
2023-11-12T22:28:12.151Z,7.40
2023-11-12T22:30:15.040Z,7.40
2023-11-12T22:32:24.566Z,7.53
2023-11-12T22:34:28.849Z,7.93
2023-11-12T22:36:34.607Z,7.45
2023-11-12T22:38:38.865Z,9.18
2023-11-12T22:40:42.575Z,9.77
2023-11-12T22:42:46.243Z,8.95
2023-11-12T22:44:49.814Z,9.60
2023-11-12T22:46:53.715Z,8.35
2023-11-12T22:48:56.646Z,8.00
2023-11-12T22:51:00.598Z,6.95
2023-11-12T22:53:02.520Z,8.52
2023-11-12T22:55:06.187Z,6.70
2023-11-12T22:59:15.132Z,7.03
2023-11-12T23:01:17.301Z,7.10
2023-11-12T23:03:21.703Z,7.28
2023-11-12T23:05:25.451Z,8.52
2023-11-12T23:07:29.884Z,7.47
2023-11-12T23:09:33.305Z,8.43
2023-11-12T23:11:36.144Z,9.55
2023-11-12T23:13:38.011Z,7.32
2023-11-12T23:15:40.270Z,7.93
2023-11-12T23:17:41.949Z,8.75
2023-11-12T23:19:43.488Z,8.05
2023-11-12T23:21:44.978Z,9.13
2023-11-12T23:23:46.460Z,9.30
2023-11-12T23:25:47.927Z,8.50
2023-11-12T23:27:49.516Z,8.13
2023-11-12T23:29:50.985Z,7.95
2023-11-12T23:31:54.787Z,9.82
2023-11-12T23:33:56.384Z,10.75
2023-11-12T23:35:57.852Z,8.45
2023-11-12T23:37:59.965Z,8.77
2023-11-12T23:40:01.630Z,8.25
2023-11-12T23:42:04.380Z,9.48
2023-11-12T23:44:05.932Z,11.27
2023-11-12T23:46:07.406Z,11.18
2023-11-12T23:48:09.169Z,12.48
2023-11-12T23:50:10.999Z,10.30
2023-11-12T23:52:15.641Z,11.68
2023-11-12T23:54:17.502Z,10.75
2023-11-12T23:56:19.134Z,9.93
2023-11-12T23:58:20.736Z,10.25
